createdAt,value
2016-05-10T00:00:22.142Z,0
2016-05-10T00:01:36.379Z,0
2016-05-10T00:02:22.038Z,0
2016-05-10T00:03:36.400Z,0
2016-05-10T00:04:22.075Z,0
2016-05-10T00:06:22.268Z,0
2016-05-10T00:07:50.677Z,0
2016-05-10T00:08:22.335Z,0
2016-05-10T00:10:22.060Z,0
2016-05-10T00:11:22.251Z,0
2016-05-10T00:12:22.436Z,0
2016-05-10T00:13:36.683Z,0
2016-05-10T00:14:22.618Z,0
2016-05-10T00:16:22.690Z,0
2016-05-10T00:17:36.919Z,0
2016-05-10T00:18:36.811Z,0
2016-05-10T00:19:22.656Z,0
2016-05-10T00:20:22.690Z,0
2016-05-10T00:21:22.754Z,0
2016-05-10T00:22:36.952Z,0
2016-05-10T00:23:51.320Z,0
2016-05-10T00:24:22.829Z,0
2016-05-10T00:25:22.836Z,0
2016-05-10T00:26:23.031Z,0
2016-05-10T00:27:22.896Z,0
2016-05-10T00:28:23.073Z,0
2016-05-10T00:29:36.828Z,0
2016-05-10T00:30:22.973Z,0
2016-05-10T00:31:37.337Z,0
2016-05-10T00:32:37.372Z,0
2016-05-10T00:33:23.188Z,0
2016-05-10T00:34:23.207Z,0
2016-05-10T00:35:37.414Z,0
2016-05-10T00:36:23.276Z,0
2016-05-10T00:37:23.279Z,0
2016-05-10T00:38:37.486Z,0
2016-05-10T00:39:37.520Z,0
2016-05-10T00:41:23.369Z,0
2016-05-10T00:42:23.404Z,0
2016-05-10T00:43:23.266Z,0
2016-05-10T00:44:23.284Z,0
2016-05-10T00:45:37.663Z,0
2016-05-10T00:46:23.477Z,0
2016-05-10T00:47:23.355Z,0
2016-05-10T00:48:37.702Z,0
2016-05-10T00:49:23.548Z,0
2016-05-10T00:50:37.754Z,0
2016-05-10T00:51:23.459Z,0
2016-05-10T00:52:51.977Z,0
2016-05-10T00:53:37.809Z,0
2016-05-10T00:54:23.499Z,0
2016-05-10T00:55:23.674Z,0
2016-05-10T00:56:37.879Z,0
2016-05-10T00:57:23.726Z,0
2016-05-10T00:58:23.587Z,0
2016-05-10T01:00:37.968Z,0
2016-05-10T01:01:23.658Z,0
2016-05-10T01:02:23.676Z,0
2016-05-10T01:03:23.867Z,0
2016-05-10T01:04:23.870Z,0
2016-05-10T01:05:23.747Z,0
2016-05-10T01:06:23.922Z,0
2016-05-10T01:07:23.956Z,0
2016-05-10T01:08:38.145Z,0
2016-05-10T01:09:23.977Z,0
2016-05-10T01:10:24.011Z,0
2016-05-10T01:11:24.028Z,0
2016-05-10T01:12:38.094Z,0
2016-05-10T01:13:23.909Z,0
2016-05-10T01:14:24.475Z,0
2016-05-10T01:15:23.805Z,0
2016-05-10T01:16:38.324Z,0
2016-05-10T01:17:24.155Z,0
2016-05-10T01:18:24.204Z,0
2016-05-10T01:20:24.069Z,0
2016-05-10T01:21:24.243Z,0
2016-05-10T01:22:24.121Z,0
2016-05-10T01:23:38.468Z,0
2016-05-10T01:24:38.346Z,0
2016-05-10T01:25:24.020Z,0
2016-05-10T01:26:24.351Z,0
2016-05-10T01:27:24.368Z,0
2016-05-10T01:28:24.403Z,0
2016-05-10T01:29:25.296Z,0
2016-05-10T01:30:24.283Z,0
2016-05-10T01:31:24.301Z,0
2016-05-10T01:32:38.664Z,0
2016-05-10T01:33:24.510Z,0
2016-05-10T01:34:24.544Z,0
2016-05-10T01:35:24.406Z,0
2016-05-10T01:36:24.565Z,0
2016-05-10T01:37:38.770Z,0
2016-05-10T01:38:24.461Z,0
2016-05-10T01:39:24.479Z,0
2016-05-10T01:40:24.670Z,0
2016-05-10T01:41:24.688Z,0
2016-05-10T01:42:24.550Z,0
2016-05-10T01:43:38.771Z,0
2016-05-10T01:45:24.761Z,0
2016-05-10T01:46:24.780Z,0
2016-05-10T01:48:53.191Z,0
2016-05-10T01:49:24.693Z,0
2016-05-10T01:51:24.746Z,0
2016-05-10T01:52:24.921Z,0
2016-05-10T01:53:24.627Z,0
2016-05-10T01:54:38.988Z,0
2016-05-10T01:55:24.976Z,0
2016-05-10T01:56:25.009Z,0
2016-05-10T01:57:25.013Z,0
2016-05-10T01:58:24.905Z,0
2016-05-10T01:59:25.346Z,0
2016-05-10T02:00:24.785Z,0
2016-05-10T02:01:25.101Z,0
2016-05-10T02:02:25.119Z,0
2016-05-10T02:03:25.200Z,0
2016-05-10T02:04:39.359Z,0
2016-05-10T02:05:25.190Z,0
2016-05-10T02:07:25.086Z,0
2016-05-10T02:08:25.103Z,0
2016-05-10T02:09:39.466Z,0
2016-05-10T02:10:39.484Z,0
2016-05-10T02:11:25.347Z,0
2016-05-10T02:12:25.193Z,0
2016-05-10T02:13:25.211Z,0
2016-05-10T02:14:25.089Z,0
2016-05-10T02:15:25.247Z,0
2016-05-10T02:16:25.266Z,0
2016-05-10T02:17:25.456Z,0
2016-05-10T02:18:25.475Z,0
2016-05-10T02:19:25.336Z,0
2016-05-10T02:20:39.714Z,0
2016-05-10T02:21:39.717Z,0
2016-05-10T02:22:25.407Z,0
2016-05-10T02:23:25.644Z,0
2016-05-10T02:24:39.788Z,0
2016-05-10T02:25:39.807Z,0
2016-05-10T02:26:25.652Z,0
2016-05-10T02:27:25.358Z,0
2016-05-10T02:28:39.861Z,0
2016-05-10T02:29:40.207Z,0
2016-05-10T02:30:39.757Z,0
2016-05-10T02:31:39.775Z,0
2016-05-10T02:32:25.778Z,0
2016-05-10T02:33:25.640Z,0
2016-05-10T02:34:25.815Z,0
2016-05-10T02:35:39.865Z,0
2016-05-10T02:36:25.711Z,0
2016-05-10T02:37:25.884Z,0
2016-05-10T02:38:25.747Z,0
2016-05-10T02:39:25.953Z,0
2016-05-10T02:40:25.940Z,0
2016-05-10T02:41:25.959Z,0
2016-05-10T02:42:25.992Z,0
2016-05-10T02:43:26.011Z,0
2016-05-10T02:44:39.919Z,0
2016-05-10T02:45:40.236Z,0
2016-05-10T02:46:26.066Z,0
2016-05-10T02:47:26.099Z,0
2016-05-10T02:48:25.806Z,0
2016-05-10T02:49:25.824Z,0
2016-05-10T02:50:26.154Z,0
2016-05-10T02:51:26.173Z,0
2016-05-10T02:52:26.191Z,0
2016-05-10T02:53:25.913Z,0
2016-05-10T02:54:26.244Z,0
2016-05-10T02:55:26.262Z,0
2016-05-10T02:56:26.140Z,0
2016-05-10T02:57:40.485Z,0
2016-05-10T02:58:26.176Z,0
2016-05-10T02:59:40.382Z,0
2016-05-10T03:00:26.056Z,0
2016-05-10T03:01:26.107Z,0
2016-05-10T03:02:26.406Z,0
2016-05-10T03:03:26.440Z,0
2016-05-10T03:04:26.457Z,0
2016-05-10T03:05:26.476Z,0
2016-05-10T03:06:26.354Z,0
2016-05-10T03:07:40.700Z,0
2016-05-10T03:08:26.390Z,5
2016-05-10T03:09:26.565Z,5
2016-05-10T03:10:40.770Z,5
2016-05-10T03:11:26.601Z,5
2016-05-10T03:13:26.639Z,5
2016-05-10T03:14:27.516Z,5
2016-05-10T03:16:26.708Z,10
2016-05-10T03:17:26.572Z,10
2016-05-10T03:18:26.777Z,10
2016-05-10T03:19:26.607Z,10
2016-05-10T03:20:26.798Z,10
2016-05-10T03:21:26.816Z,10
2016-05-10T03:22:26.849Z,15
2016-05-10T03:23:40.883Z,15
2016-05-10T03:24:26.574Z,15
2016-05-10T03:25:26.905Z,15
2016-05-10T03:28:41.147Z,20
2016-05-10T03:29:27.197Z,20
2016-05-10T03:31:41.218Z,25
2016-05-10T03:32:41.221Z,25
2016-05-10T03:33:41.254Z,25
2016-05-10T03:34:27.085Z,30
2016-05-10T03:35:41.291Z,30
2016-05-10T03:36:27.122Z,30
2016-05-10T03:37:27.157Z,30
2016-05-10T03:38:27.173Z,35
2016-05-10T03:39:41.364Z,35
2016-05-10T03:40:27.211Z,35
2016-05-10T03:41:27.089Z,40
2016-05-10T03:42:27.264Z,40
2016-05-10T03:43:26.969Z,40
2016-05-10T03:44:27.144Z,45
2016-05-10T03:45:27.350Z,45
2016-05-10T03:46:27.352Z,45
2016-05-10T03:47:27.370Z,50
2016-05-10T03:48:55.748Z,50
2016-05-10T03:49:41.595Z,50
2016-05-10T03:50:41.456Z,55
2016-05-10T03:51:27.443Z,55
2016-05-10T03:52:27.321Z,55
2016-05-10T03:53:27.496Z,60
2016-05-10T03:54:41.702Z,60
2016-05-10T03:55:41.564Z,65
2016-05-10T03:56:27.411Z,65
2016-05-10T03:57:41.616Z,65
2016-05-10T03:58:27.431Z,65
2016-05-10T03:59:27.527Z,70
2016-05-10T04:00:27.640Z,70
2016-05-10T04:01:27.658Z,70
2016-05-10T04:02:56.051Z,75
2016-05-10T04:03:27.398Z,75
2016-05-10T04:04:27.728Z,75
2016-05-10T04:05:41.934Z,80
2016-05-10T04:06:41.968Z,80
2016-05-10T04:07:27.784Z,85
2016-05-10T04:08:27.662Z,85
2016-05-10T04:09:27.836Z,85
2016-05-10T04:10:42.042Z,90
2016-05-10T04:11:27.888Z,90
2016-05-10T04:12:27.437Z,90
2016-05-10T04:14:28.115Z,95
2016-05-10T04:15:27.977Z,95
2016-05-10T04:16:28.011Z,100
2016-05-10T04:17:42.029Z,100
2016-05-10T04:19:27.909Z,100
2016-05-10T04:20:42.271Z,105
2016-05-10T04:21:28.102Z,105
2016-05-10T04:22:27.964Z,105
2016-05-10T04:23:28.139Z,110
2016-05-10T04:24:28.002Z,110
2016-05-10T04:26:27.897Z,115
2016-05-10T04:27:28.227Z,115
2016-05-10T04:28:28.246Z,115
2016-05-10T04:29:28.296Z,120
2016-05-10T04:30:28.283Z,120
2016-05-10T04:31:42.505Z,125
2016-05-10T04:32:28.335Z,125
2016-05-10T04:33:28.196Z,125
2016-05-10T04:34:42.560Z,125
2016-05-10T04:35:28.390Z,130
2016-05-10T04:36:28.424Z,130
2016-05-10T04:37:42.615Z,130
2016-05-10T04:38:28.460Z,130
2016-05-10T04:39:28.479Z,135
2016-05-10T04:40:28.340Z,140
2016-05-10T04:41:28.531Z,140
2016-05-10T04:42:42.737Z,140
2016-05-10T04:43:28.412Z,140
2016-05-10T04:44:28.681Z,140
2016-05-10T04:45:28.636Z,150
2016-05-10T04:46:28.325Z,170
2016-05-10T04:47:42.828Z,260
2016-05-10T04:48:28.675Z,345
2016-05-10T04:49:28.709Z,400
2016-05-10T04:50:28.572Z,405
2016-05-10T04:51:28.745Z,410
2016-05-10T04:52:42.794Z,415
2016-05-10T04:53:42.969Z,420
2016-05-10T04:54:28.816Z,425
2016-05-10T04:55:28.678Z,430
2016-05-10T04:56:43.040Z,435
2016-05-10T04:57:28.887Z,440
2016-05-10T04:58:42.936Z,450
2016-05-10T04:59:29.189Z,460
2016-05-10T05:00:28.802Z,455
2016-05-10T05:01:28.835Z,460
2016-05-10T05:02:29.010Z,465
2016-05-10T05:03:29.027Z,470
2016-05-10T05:04:43.077Z,465
2016-05-10T05:05:29.080Z,470
2016-05-10T05:06:28.957Z,475
2016-05-10T05:07:29.132Z,480
2016-05-10T05:08:29.166Z,485
2016-05-10T05:09:29.028Z,490
2016-05-10T05:10:29.219Z,500
2016-05-10T05:11:29.096Z,505
2016-05-10T05:12:29.270Z,505
2016-05-10T05:13:29.290Z,515
2016-05-10T05:14:43.729Z,520
2016-05-10T05:15:29.341Z,520
2016-05-10T05:16:29.376Z,530
2016-05-10T05:17:29.409Z,540
2016-05-10T05:18:29.428Z,540
2016-05-10T05:19:29.461Z,545
2016-05-10T05:21:29.514Z,570
2016-05-10T05:22:43.719Z,590
2016-05-10T05:23:29.410Z,595
2016-05-10T05:24:29.600Z,605
2016-05-10T05:25:57.994Z,625
2016-05-10T05:26:29.496Z,625
2016-05-10T05:27:29.702Z,630
2016-05-10T05:28:29.704Z,640
2016-05-10T05:29:30.207Z,645
2016-05-10T05:30:43.960Z,645
2016-05-10T05:31:43.837Z,645
2016-05-10T05:32:29.528Z,650
2016-05-10T05:33:29.859Z,655
2016-05-10T05:34:29.736Z,655
2016-05-10T05:35:29.754Z,660
2016-05-10T05:36:44.132Z,665
2016-05-10T05:37:29.979Z,665
2016-05-10T05:38:30.028Z,675
2016-05-10T05:40:58.440Z,685
2016-05-10T05:41:29.943Z,695
2016-05-10T05:42:29.976Z,700
2016-05-10T05:43:29.839Z,710
2016-05-10T05:44:45.092Z,730
2016-05-10T05:45:44.406Z,730
2016-05-10T05:46:30.253Z,730
2016-05-10T05:47:30.318Z,735
2016-05-10T05:49:30.231Z,735
2016-05-10T05:50:30.061Z,730
2016-05-10T05:51:30.406Z,740
2016-05-10T05:52:30.441Z,755
2016-05-10T05:54:30.493Z,765
2016-05-10T05:55:30.527Z,780
2016-05-10T05:56:30.561Z,795
2016-05-10T05:57:30.594Z,800
2016-05-10T05:58:30.457Z,805
2016-05-10T05:59:32.178Z,825
2016-05-10T06:00:44.728Z,845
2016-05-10T06:01:30.558Z,860
2016-05-10T06:02:30.749Z,870
2016-05-10T06:03:30.471Z,875
2016-05-10T06:04:30.646Z,865
2016-05-10T06:05:30.835Z,875
2016-05-10T06:06:30.713Z,900
2016-05-10T06:07:30.904Z,890
2016-05-10T06:08:30.953Z,875
2016-05-10T06:09:45.173Z,890
2016-05-10T06:10:31.004Z,885
2016-05-10T06:12:31.088Z,875
2016-05-10T06:13:30.935Z,890
2016-05-10T06:14:31.188Z,880
2016-05-10T06:15:31.190Z,885
2016-05-10T06:16:45.380Z,865
2016-05-10T06:17:45.414Z,860
2016-05-10T06:18:31.276Z,845
2016-05-10T06:19:31.295Z,835
2016-05-10T06:20:31.345Z,825
2016-05-10T06:21:31.348Z,815
2016-05-10T06:22:31.397Z,805
2016-05-10T06:23:31.431Z,815
2016-05-10T06:24:31.464Z,815
2016-05-10T06:25:31.483Z,805
2016-05-10T06:26:45.704Z,790
2016-05-10T06:27:31.614Z,780
2016-05-10T06:28:31.444Z,785
2016-05-10T06:29:45.509Z,790
2016-05-10T06:31:31.547Z,785
2016-05-10T06:32:31.407Z,810
2016-05-10T06:33:45.941Z,865
2016-05-10T06:34:31.804Z,950
2016-05-10T06:35:31.666Z,1110
2016-05-10T06:36:31.856Z,1315
2016-05-10T06:37:31.906Z,1385
2016-05-10T06:39:00.315Z,1315
2016-05-10T06:39:31.801Z,1295
2016-05-10T06:40:32.007Z,1250
2016-05-10T06:41:32.057Z,1275
2016-05-10T06:42:46.263Z,1290
2016-05-10T06:43:31.954Z,1260
2016-05-10T06:44:33.159Z,1270
2016-05-10T06:45:32.021Z,1305
2016-05-10T06:46:32.212Z,1300
2016-05-10T06:47:32.245Z,1280
2016-05-10T06:48:32.123Z,1270
2016-05-10T06:49:46.501Z,1270
2016-05-10T06:50:46.362Z,1300
2016-05-10T06:51:46.568Z,1335
2016-05-10T06:52:32.431Z,1320
2016-05-10T06:53:32.465Z,1325
2016-05-10T06:54:32.483Z,1345
2016-05-10T06:55:46.703Z,1350
2016-05-10T06:56:32.550Z,1350
2016-05-10T06:57:32.600Z,1320
2016-05-10T06:59:00.994Z,1295
2016-05-10T06:59:33.464Z,1285
2016-05-10T07:00:46.874Z,1300
2016-05-10T07:01:32.563Z,1310
2016-05-10T07:02:32.598Z,1335
2016-05-10T07:03:32.632Z,1330
2016-05-10T07:04:32.682Z,1295
2016-05-10T07:05:46.887Z,1350
2016-05-10T07:06:32.733Z,1370
2016-05-10T07:07:32.783Z,1375
2016-05-10T07:08:32.973Z,1375
2016-05-10T07:09:32.992Z,1390
2016-05-10T07:10:47.073Z,1400
2016-05-10T07:11:32.934Z,1425
2016-05-10T07:12:33.140Z,1430
2016-05-10T07:13:33.159Z,1415
2016-05-10T07:14:33.209Z,1435
2016-05-10T07:15:47.399Z,1365
2016-05-10T07:17:33.279Z,1390
2016-05-10T07:18:33.328Z,1400
2016-05-10T07:20:47.568Z,1420
2016-05-10T07:21:33.273Z,1435
2016-05-10T07:23:34.186Z,1440
2016-05-10T07:24:33.532Z,1485
2016-05-10T07:25:47.754Z,1515
2016-05-10T07:26:47.787Z,1480
2016-05-10T07:27:47.822Z,1460
2016-05-10T07:28:33.511Z,1470
2016-05-10T07:29:33.655Z,1465
2016-05-10T07:30:33.751Z,1495
2016-05-10T07:31:33.613Z,1535
2016-05-10T07:32:33.803Z,1550
2016-05-10T07:33:33.838Z,1510
2016-05-10T07:34:33.888Z,1440
2016-05-10T07:35:47.936Z,1470
2016-05-10T07:36:33.955Z,1555
2016-05-10T07:37:33.988Z,1565
2016-05-10T07:38:34.023Z,1560
2016-05-10T07:39:48.088Z,1600
2016-05-10T07:40:34.090Z,1620
2016-05-10T07:41:33.984Z,1605
2016-05-10T07:42:34.174Z,1575
2016-05-10T07:43:48.380Z,1590
2016-05-10T07:44:34.290Z,1630
2016-05-10T07:45:34.276Z,1615
2016-05-10T07:46:33.998Z,1610
2016-05-10T07:47:34.406Z,1580
2016-05-10T07:48:34.456Z,1595
2016-05-10T07:49:34.396Z,1535
2016-05-10T07:50:34.446Z,1540
2016-05-10T07:51:34.323Z,1590
2016-05-10T07:52:48.545Z,1625
2016-05-10T07:53:34.548Z,1580
2016-05-10T07:54:34.426Z,1595
2016-05-10T07:55:34.615Z,1590
2016-05-10T07:56:34.650Z,1545
2016-05-10T07:57:34.683Z,1630
2016-05-10T07:58:34.577Z,1675
2016-05-10T07:59:34.658Z,1660
2016-05-10T08:01:34.835Z,1590
2016-05-10T08:03:03.228Z,1590
2016-05-10T08:03:49.090Z,1605
2016-05-10T08:04:49.139Z,1665
2016-05-10T08:05:35.002Z,1625
2016-05-10T08:06:35.036Z,1585
2016-05-10T08:07:35.038Z,1595
2016-05-10T08:08:49.260Z,1640
2016-05-10T08:09:35.122Z,2865
2016-05-10T08:10:49.187Z,2860
2016-05-10T08:11:35.205Z,2940
2016-05-10T08:12:35.224Z,3070
2016-05-10T08:13:49.445Z,3075
2016-05-10T08:14:35.291Z,2895
2016-05-10T08:15:35.169Z,2815
2016-05-10T08:16:35.203Z,2840
2016-05-10T08:17:49.596Z,2935
2016-05-10T08:18:35.131Z,2970
2016-05-10T08:19:35.477Z,3050
2016-05-10T08:20:35.339Z,2920
2016-05-10T08:22:35.423Z,2880
2016-05-10T08:23:35.457Z,2985
2016-05-10T08:24:49.818Z,3070
2016-05-10T08:25:35.524Z,2955
2016-05-10T08:26:49.761Z,3005
2016-05-10T08:27:49.936Z,3030
2016-05-10T08:28:35.642Z,3265
2016-05-10T08:29:36.972Z,2960
2016-05-10T08:30:36.428Z,3075
2016-05-10T08:31:49.931Z,2925
2016-05-10T08:32:35.918Z,2800
2016-05-10T08:33:49.828Z,2945
2016-05-10T08:34:36.033Z,3005
2016-05-10T08:35:35.863Z,3230
2016-05-10T08:36:36.054Z,3045
2016-05-10T08:37:36.103Z,3225
2016-05-10T08:38:36.137Z,3220
2016-05-10T08:39:35.999Z,2765
2016-05-10T08:40:50.221Z,2790
2016-05-10T08:41:50.410Z,3050
2016-05-10T08:42:50.304Z,3000
2016-05-10T08:43:36.323Z,3065
2016-05-10T08:44:37.966Z,2985
2016-05-10T08:45:36.218Z,3040
2016-05-10T08:46:50.596Z,3045
2016-05-10T08:47:36.427Z,3030
2016-05-10T08:48:36.477Z,3210
2016-05-10T08:49:36.510Z,3125
2016-05-10T08:50:36.545Z,3060
2016-05-10T08:51:36.423Z,2960
2016-05-10T08:52:36.457Z,3000
2016-05-10T08:54:36.524Z,3145
2016-05-10T08:55:50.746Z,3125
2016-05-10T08:56:36.748Z,3060
2016-05-10T08:57:36.501Z,3235
2016-05-10T08:58:36.519Z,3215
2016-05-10T08:59:36.819Z,3125
2016-05-10T09:00:36.869Z,3035
2016-05-10T09:01:36.933Z,2945
2016-05-10T09:02:51.139Z,2780
2016-05-10T09:03:51.204Z,2870
2016-05-10T09:04:37.050Z,2770
2016-05-10T09:07:37.153Z,2985
2016-05-10T09:09:37.205Z,2750
2016-05-10T09:10:37.083Z,2885
2016-05-10T09:11:37.274Z,3155
2016-05-10T09:12:48.760Z,2930
2016-05-10T09:13:44.904Z,2805
2016-05-10T09:14:38.641Z,3040
2016-05-10T09:15:39.190Z,3210
2016-05-10T09:16:37.302Z,3075
2016-05-10T09:17:37.493Z,3015
2016-05-10T09:18:37.250Z,3110
2016-05-10T09:19:37.639Z,2910
2016-05-10T09:20:37.574Z,3055
2016-05-10T09:21:37.649Z,2975
2016-05-10T09:22:37.709Z,3030
2016-05-10T09:23:52.088Z,2910
2016-05-10T09:24:37.825Z,2805
2016-05-10T09:25:38.046Z,2885
2016-05-10T09:26:38.080Z,3005
2016-05-10T09:27:52.143Z,2895
2016-05-10T09:28:37.856Z,3020
2016-05-10T09:29:38.052Z,2950
2016-05-10T09:30:38.075Z,2855
2016-05-10T09:31:38.287Z,2960
2016-05-10T09:32:38.309Z,3085
2016-05-10T09:34:38.398Z,2895
2016-05-10T09:35:38.277Z,2870
2016-05-10T09:36:38.453Z,3020
2016-05-10T09:37:38.365Z,2950
2016-05-10T09:38:38.383Z,3130
2016-05-10T09:39:52.762Z,2970
2016-05-10T09:40:38.609Z,2795
2016-05-10T09:41:38.660Z,3010
2016-05-10T09:42:38.539Z,2835
2016-05-10T09:43:52.900Z,2820
2016-05-10T09:44:38.795Z,2920
2016-05-10T09:45:38.641Z,2925
2016-05-10T09:46:38.676Z,2960
2016-05-10T09:47:38.882Z,2845
2016-05-10T09:48:52.931Z,2900
2016-05-10T09:49:38.950Z,2985
2016-05-10T09:50:38.983Z,2885
2016-05-10T09:51:53.033Z,2885
2016-05-10T09:52:38.879Z,2810
2016-05-10T09:55:39.153Z,2985
2016-05-10T09:56:39.028Z,2715
2016-05-10T09:57:53.408Z,2740
2016-05-10T09:58:39.096Z,2895
2016-05-10T09:59:53.523Z,2635
2016-05-10T10:00:39.008Z,2620
2016-05-10T10:01:39.372Z,2755
2016-05-10T10:02:39.232Z,2665
2016-05-10T10:03:53.456Z,2850
2016-05-10T10:04:39.490Z,2980
2016-05-10T10:05:39.508Z,2805
2016-05-10T10:06:39.243Z,2775
2016-05-10T10:07:39.433Z,2885
2016-05-10T10:08:39.294Z,2965
2016-05-10T10:09:39.642Z,2935
2016-05-10T10:10:39.519Z,2750
2016-05-10T10:11:39.725Z,2735
2016-05-10T10:12:39.603Z,2695
2016-05-10T10:13:39.637Z,2905
2016-05-10T10:14:39.530Z,2760
2016-05-10T10:16:39.895Z,2510
2016-05-10T10:17:39.929Z,2705
2016-05-10T10:18:39.525Z,2640
2016-05-10T10:19:39.856Z,2665
2016-05-10T10:20:40.045Z,2635
2016-05-10T10:23:08.320Z,2510
2016-05-10T10:23:40.164Z,2495
2016-05-10T10:24:40.181Z,2605
2016-05-10T10:25:54.406Z,2560
2016-05-10T10:26:40.093Z,2690
2016-05-10T10:27:40.300Z,2845
2016-05-10T10:28:40.006Z,2730
2016-05-10T10:29:55.511Z,2685
2016-05-10T10:30:54.435Z,2935
2016-05-10T10:31:40.435Z,2855
2016-05-10T10:32:40.484Z,2585
2016-05-10T10:34:40.380Z,2640
2016-05-10T10:35:40.586Z,2610
2016-05-10T10:36:40.636Z,2630
2016-05-10T10:37:40.497Z,2655
2016-05-10T10:38:40.704Z,2690
2016-05-10T10:39:54.927Z,2695
2016-05-10T10:40:54.947Z,2665
2016-05-10T10:41:40.806Z,2685
2016-05-10T10:42:40.683Z,2650
2016-05-10T10:43:40.561Z,2580
2016-05-10T10:44:41.111Z,2695
2016-05-10T10:45:40.941Z,2650
2016-05-10T10:46:40.835Z,2730
2016-05-10T10:48:41.043Z,2540
2016-05-10T10:49:40.920Z,2650
2016-05-10T10:50:40.971Z,2630
2016-05-10T10:51:41.161Z,2615
2016-05-10T10:52:41.038Z,2740
2016-05-10T10:53:55.418Z,2475
2016-05-10T10:54:40.950Z,2485
2016-05-10T10:55:41.312Z,2545
2016-05-10T10:56:41.345Z,2555
2016-05-10T10:57:41.380Z,2720
2016-05-10T10:58:55.604Z,2605
2016-05-10T10:59:41.792Z,2590
2016-05-10T11:00:41.326Z,2510
2016-05-10T11:01:55.706Z,2500
2016-05-10T11:02:55.740Z,2475
2016-05-10T11:04:41.650Z,2560
2016-05-10T11:05:41.667Z,2550
2016-05-10T11:07:41.578Z,2555
2016-05-10T11:08:41.769Z,2575
2016-05-10T11:09:41.646Z,2505
2016-05-10T11:10:56.027Z,2535
2016-05-10T11:11:41.824Z,2585
2016-05-10T11:12:56.110Z,2430
2016-05-10T11:13:41.954Z,2360
2016-05-10T11:14:42.301Z,2405
2016-05-10T11:15:41.710Z,2360
2016-05-10T11:16:56.090Z,2285
2016-05-10T11:17:41.934Z,2310
2016-05-10T11:18:56.315Z,2100
2016-05-10T11:19:56.363Z,2055
2016-05-10T11:20:42.207Z,2145
2016-05-10T11:21:42.085Z,2195
2016-05-10T11:22:42.276Z,2185
2016-05-10T11:23:56.187Z,2135
2016-05-10T11:24:42.046Z,2100
2016-05-10T11:25:56.427Z,2250
2016-05-10T11:26:42.427Z,2335
2016-05-10T11:28:42.510Z,2305
2016-05-10T11:29:56.734Z,2250
2016-05-10T11:30:56.753Z,2205
2016-05-10T11:31:42.612Z,2185
2016-05-10T11:32:42.474Z,2290
2016-05-10T11:33:42.711Z,2310
2016-05-10T11:35:11.091Z,2290
2016-05-10T11:35:42.591Z,2265
2016-05-10T11:36:42.797Z,2180
2016-05-10T11:37:42.816Z,2365
2016-05-10T11:38:42.849Z,2385
2016-05-10T11:39:42.743Z,2350
2016-05-10T11:40:42.933Z,2280
2016-05-10T11:41:57.158Z,2385
2016-05-10T11:42:42.861Z,2345
2016-05-10T11:43:42.879Z,2250
2016-05-10T11:44:43.990Z,2185
2016-05-10T11:45:43.103Z,2110
2016-05-10T11:46:42.825Z,2180
2016-05-10T11:47:43.015Z,2165
2016-05-10T11:48:43.205Z,2245
2016-05-10T11:49:43.238Z,2035
2016-05-10T11:50:57.151Z,2170
2016-05-10T11:51:43.151Z,2245
2016-05-10T11:52:43.356Z,2230
2016-05-10T11:53:43.218Z,2130
2016-05-10T11:54:43.252Z,2165
2016-05-10T11:55:43.442Z,2160
2016-05-10T11:56:57.510Z,2225
2016-05-10T11:57:57.700Z,2240
2016-05-10T11:58:43.544Z,2080
2016-05-10T11:59:43.593Z,2145
2016-05-10T12:00:43.471Z,2195
2016-05-10T12:02:57.869Z,1670
2016-05-10T12:03:43.557Z,1200
2016-05-10T12:04:43.747Z,595
2016-05-10T12:05:57.675Z,485
2016-05-10T12:06:43.816Z,475
2016-05-10T12:07:58.024Z,475
2016-05-10T12:08:58.089Z,480
2016-05-10T12:09:43.761Z,500
2016-05-10T12:10:43.952Z,515
2016-05-10T12:11:43.861Z,500
2016-05-10T12:12:44.019Z,490
2016-05-10T12:13:43.881Z,495
2016-05-10T12:14:44.338Z,475
2016-05-10T12:15:58.296Z,475
2016-05-10T12:16:43.983Z,495
2016-05-10T12:17:44.174Z,515
2016-05-10T12:18:44.191Z,520
2016-05-10T12:19:44.085Z,540
2016-05-10T12:20:44.104Z,525
2016-05-10T12:21:58.343Z,505
2016-05-10T12:24:23.207Z,450
2016-05-10T12:24:44.082Z,450
2016-05-10T12:25:44.414Z,460
2016-05-10T12:26:44.448Z,475
2016-05-10T12:27:44.325Z,460
2016-05-10T12:28:44.501Z,405
2016-05-10T12:29:44.659Z,345
2016-05-10T12:30:44.568Z,390
2016-05-10T12:31:44.602Z,390
2016-05-10T12:32:44.619Z,400
2016-05-10T12:34:44.688Z,420
2016-05-10T12:35:44.706Z,450
2016-05-10T12:36:44.584Z,480
2016-05-10T12:37:58.808Z,500
2016-05-10T12:38:44.683Z,490
2016-05-10T12:39:44.826Z,470
2016-05-10T12:40:44.860Z,420
2016-05-10T12:41:44.894Z,450
2016-05-10T12:42:59.103Z,445
2016-05-10T12:43:59.136Z,430
2016-05-10T12:44:44.808Z,405
2016-05-10T12:45:44.686Z,385
2016-05-10T12:46:59.505Z,385
2016-05-10T12:47:59.116Z,385
2016-05-10T12:49:44.947Z,375
2016-05-10T12:50:45.137Z,370
2016-05-10T12:51:59.346Z,375
2016-05-10T12:52:45.033Z,375
2016-05-10T12:53:59.398Z,370
2016-05-10T12:54:59.431Z,380
2016-05-10T12:55:45.118Z,380
2016-05-10T12:56:45.326Z,385
2016-05-10T12:57:45.171Z,380
2016-05-10T12:58:59.551Z,375
2016-05-10T12:59:45.114Z,365
2016-05-10T13:00:45.132Z,375
2016-05-10T13:01:45.292Z,360
2016-05-10T13:02:59.657Z,350
2016-05-10T13:03:59.534Z,330
2016-05-10T13:05:44.943Z,360
2016-05-10T13:06:45.603Z,360
2016-05-10T13:07:45.620Z,355
2016-05-10T13:08:45.639Z,355
2016-05-10T13:09:59.847Z,355
2016-05-10T13:10:45.691Z,320
2016-05-10T13:11:45.725Z,355
2016-05-10T13:12:45.758Z,355
2016-05-10T13:13:59.827Z,345
2016-05-10T13:14:45.999Z,345
2016-05-10T13:15:45.860Z,340
2016-05-10T13:16:45.707Z,340
2016-05-10T13:17:45.882Z,340
2016-05-10T13:18:45.916Z,340
2016-05-10T13:19:45.808Z,340
2016-05-10T13:20:45.843Z,340
2016-05-10T13:21:46.018Z,340
2016-05-10T13:22:45.880Z,345
2016-05-10T13:23:46.194Z,340
2016-05-10T13:24:46.087Z,340
2016-05-10T13:26:00.296Z,340
2016-05-10T13:26:45.984Z,340
2016-05-10T13:27:46.159Z,340
2016-05-10T13:28:46.051Z,335
2016-05-10T13:30:00.979Z,340
2016-05-10T13:30:46.104Z,340
2016-05-10T13:32:00.312Z,340
2016-05-10T13:33:00.487Z,340
2016-05-10T13:34:00.537Z,335
2016-05-10T13:34:46.209Z,335
2016-05-10T13:35:46.273Z,330
2016-05-10T13:36:46.417Z,330
2016-05-10T13:37:46.295Z,325
2016-05-10T13:38:46.470Z,320
2016-05-10T13:39:46.487Z,330
2016-05-10T13:41:00.711Z,330
2016-05-10T13:41:46.555Z,330
2016-05-10T13:42:46.417Z,330
2016-05-10T13:44:10.860Z,330
2016-05-10T13:44:46.657Z,330
2016-05-10T13:45:46.536Z,335
2016-05-10T13:46:46.678Z,335
2016-05-10T13:48:00.918Z,330
2016-05-10T13:48:46.590Z,320
2016-05-10T13:49:46.624Z,320
2016-05-10T13:50:46.814Z,315
2016-05-10T13:52:00.866Z,320
2016-05-10T13:52:46.851Z,320
2016-05-10T13:53:46.760Z,320
2016-05-10T13:54:46.934Z,320
2016-05-10T13:55:46.937Z,315
2016-05-10T13:56:46.955Z,315
2016-05-10T13:57:46.990Z,315
2016-05-10T13:58:46.867Z,315
2016-05-10T13:59:47.995Z,315
2016-05-10T14:00:47.075Z,315
2016-05-10T14:01:47.110Z,315
2016-05-10T14:03:01.146Z,315
2016-05-10T14:03:47.146Z,315
2016-05-10T14:04:47.196Z,310
2016-05-10T14:05:47.229Z,315
2016-05-10T14:07:01.423Z,315
2016-05-10T14:08:01.441Z,320
2016-05-10T14:09:01.334Z,325
2016-05-10T14:10:01.353Z,325
2016-05-10T14:10:47.353Z,320
2016-05-10T14:11:47.371Z,310
2016-05-10T14:13:01.579Z,310
2016-05-10T14:14:47.176Z,310
2016-05-10T14:15:47.334Z,310
2016-05-10T14:16:47.509Z,305
2016-05-10T14:17:47.387Z,305
2016-05-10T14:19:01.752Z,315
2016-05-10T14:19:47.595Z,320
2016-05-10T14:20:47.489Z,325
2016-05-10T14:21:47.350Z,315
2016-05-10T14:22:47.682Z,310
2016-05-10T14:23:47.716Z,305
2016-05-10T14:25:01.908Z,300
2016-05-10T14:25:47.768Z,295
2016-05-10T14:27:47.835Z,300
2016-05-10T14:29:01.716Z,300
2016-05-10T14:29:48.482Z,300
2016-05-10T14:30:47.922Z,300
2016-05-10T14:32:02.115Z,305
2016-05-10T14:32:47.943Z,310
2016-05-10T14:33:47.821Z,310
2016-05-10T14:34:48.010Z,315
2016-05-10T14:35:47.717Z,320
2016-05-10T14:38:48.115Z,330
2016-05-10T14:39:48.556Z,330
2016-05-10T14:40:48.026Z,330
2016-05-10T14:41:48.029Z,305
2016-05-10T14:42:48.220Z,290